Time;durP1;ratioP1;P1;durP2;ratioP2;P2;SDS_P1;SDS_P2;PMS_P1;PMS_P2;Temp;Humidity;BMP_temperature;BMP_pressure;BME280_temperature;BME280_humidity;BME280_pressure;Samples;Min_cycle;Max_cycle;Signal;HPM_P1;HPM_P2
2021/08/10 00:00:14;;;;;;;2.80;1.40;;;;;;;13.61;100.00;101050.50;5053178;28;20215;-72
2021/08/10 00:02:40;;;;;;;2.63;1.80;;;;;;;13.42;100.00;101050.22;5048955;28;20231;-73
2021/08/10 00:05:08;;;;;;;3.43;1.70;;;;;;;13.39;100.00;101060.78;5051168;28;20220;-72
2021/08/10 00:07:35;;;;;;;3.20;2.17;;;;;;;13.55;100.00;101049.84;5059734;28;20208;-73
2021/08/10 00:10:01;;;;;;;2.23;2.00;;;;;;;13.48;100.00;101059.63;5054335;28;20252;-72
2021/08/10 00:12:27;;;;;;;2.60;2.03;;;;;;;13.42;100.00;101049.34;5043796;28;20220;-72
2021/08/10 00:14:54;;;;;;;1.80;1.60;;;;;;;13.29;100.00;101046.22;5052380;28;20236;-72
2021/08/10 00:17:21;;;;;;;3.17;1.60;;;;;;;13.21;100.00;101037.75;5054844;28;20200;-72
2021/08/10 00:19:48;;;;;;;2.10;1.50;;;;;;;13.20;100.00;101030.81;5053009;28;20209;-72
2021/08/10 00:22:14;;;;;;;2.00;1.80;;;;;;;13.30;100.00;101032.22;5055969;28;20225;-72
2021/08/10 00:24:41;;;;;;;2.33;1.77;;;;;;;13.20;100.00;101029.03;5050697;28;20238;-73
2021/08/10 00:27:07;;;;;;;3.20;1.73;;;;;;;13.16;100.00;101029.19;5052341;28;20200;-72
2021/08/10 00:29:33;;;;;;;2.30;1.77;;;;;;;13.17;100.00;101029.13;5051953;28;20243;-72
2021/08/10 00:32:00;;;;;;;2.30;1.90;;;;;;;13.06;100.00;101018.13;5047144;28;20197;-72
2021/08/10 00:34:28;;;;;;;2.40;2.00;;;;;;;13.09;100.00;101020.66;5052179;28;20269;-72
2021/08/10 00:36:54;;;;;;;2.53;1.77;;;;;;;12.95;100.00;101028.91;5064440;28;20200;-73
2021/08/10 00:39:21;;;;;;;3.07;1.90;;;;;;;12.81;100.00;101031.09;5047427;28;20209;-73
2021/08/10 00:41:47;;;;;;;1.77;1.60;;;;;;;12.74;100.00;101035.63;5069984;28;20237;-72
2021/08/10 00:44:14;;;;;;;2.37;1.80;;;;;;;12.71;100.00;101035.72;5053241;28;20780;-72
2021/08/10 00:46:44;;;;;;;2.13;1.90;;;;;;;12.68;100.00;101034.06;5055081;28;20211;-72
2021/08/10 00:49:11;;;;;;;2.33;1.70;;;;;;;12.77;100.00;101032.94;5052337;28;20262;-73
2021/08/10 00:51:39;;;;;;;1.90;1.80;;;;;;;12.84;100.00;101036.22;5051047;28;20206;-72
2021/08/10 00:54:11;;;;;;;2.40;1.80;;;;;;;12.72;100.00;101029.59;5052088;28;20220;-73
2021/08/10 00:56:42;;;;;;;3.03;1.80;;;;;;;12.69;100.00;101040.97;5046760;28;20570;-73
2021/08/10 00:59:09;;;;;;;2.83;1.90;;;;;;;12.56;100.00;101044.84;5051121;28;20224;-72
2021/08/10 01:01:41;;;;;;;2.43;1.90;;;;;;;12.55;100.00;101048.38;5052601;28;20230;-72
2021/08/10 01:04:09;;;;;;;4.63;1.87;;;;;;;12.57;100.00;101048.31;5050358;28;20288;-72
2021/08/10 01:06:50;;;;;;;2.97;1.90;;;;;;;12.53;100.00;101051.94;5051073;28;20196;-72
2021/08/10 01:09:22;;;;;;;3.47;2.03;;;;;;;12.38;100.00;101050.56;5054666;28;20321;-73
2021/08/10 01:11:55;;;;;;;3.47;1.80;;;;;;;12.58;100.00;101044.81;5050060;28;20229;-72
2021/08/10 01:14:39;;;;;;;3.60;1.90;;;;;;;12.67;100.00;101055.03;5051611;28;20223;-72
2021/08/10 01:17:10;;;;;;;3.50;1.97;;;;;;;12.66;100.00;101055.91;5047122;28;20231;-72
2021/08/10 01:19:56;;;;;;;3.50;2.20;;;;;;;12.51;100.00;101046.75;5067065;28;20220;-72
2021/08/10 01:22:28;;;;;;;2.53;2.20;;;;;;;12.47;100.00;101043.34;5049231;28;20597;-72
2021/08/10 01:25:04;;;;;;;3.10;2.40;;;;;;;12.50;100.00;101042.41;5049611;28;20732;-72
2021/08/10 01:31:23;;;;;;;2.50;1.73;;;;;;;12.67;100.00;101050.63;5048652;28;20202;-72
2021/08/10 01:33:59;;;;;;;2.30;1.97;;;;;;;12.71;100.00;101051.41;5051351;28;20234;-72
2021/08/10 01:36:27;;;;;;;2.77;2.20;;;;;;;12.59;100.00;101042.13;5047153;28;20238;-72
2021/08/10 01:38:58;;;;;;;5.60;2.37;;;;;;;12.70;100.00;101044.47;5046461;28;20208;-72
2021/08/10 01:41:26;;;;;;;3.27;2.27;;;;;;;12.75;100.00;101034.75;5047618;28;20204;-73
2021/08/10 01:43:55;;;;;;;3.40;2.20;;;;;;;12.76;100.00;101043.44;5049809;28;20220;-72
2021/08/10 01:46:26;;;;;;;3.50;2.33;;;;;;;12.81;100.00;101033.69;5051108;28;20225;-72
2021/08/10 01:48:57;;;;;;;2.70;2.30;;;;;;;12.78;100.00;101034.63;5048340;28;20217;-73
2021/08/10 01:51:26;;;;;;;4.77;2.40;;;;;;;12.78;100.00;101034.63;5049884;28;20218;-72
2021/08/10 01:53:55;;;;;;;3.53;2.23;;;;;;;12.81;100.00;101031.09;5048159;28;20219;-72
2021/08/10 01:56:22;;;;;;;2.73;2.20;;;;;;;12.80;100.00;101034.59;5050435;28;20207;-73
2021/08/10 01:58:50;;;;;;;3.40;2.40;;;;;;;12.79;100.00;101033.75;5049332;28;20234;-72
2021/08/10 02:01:18;;;;;;;2.50;2.07;;;;;;;12.69;100.00;101027.91;5062782;28;20265;-72
2021/08/10 02:03:47;;;;;;;2.40;2.20;;;;;;;12.71;100.00;101034.88;5049897;28;20224;-72
2021/08/10 02:06:15;;;;;;;3.20;1.90;;;;;;;12.65;100.00;101030.66;5048356;28;20212;-73
2021/08/10 02:08:48;;;;;;;3.40;2.13;;;;;;;12.68;100.00;101031.44;5048212;28;20301;-72
2021/08/10 02:11:15;;;;;;;2.70;2.00;;;;;;;12.63;100.00;101027.25;5066369;28;20245;-72
2021/08/10 02:13:42;;;;;;;2.23;2.03;;;;;;;12.49;100.00;101030.25;5046178;28;20223;-73
2021/08/10 02:16:12;;;;;;;3.80;2.40;;;;;;;12.39;100.00;101034.00;5049623;28;20311;-73
2021/08/10 02:18:43;;;;;;;3.47;2.30;;;;;;;12.50;100.00;101029.31;5047029;28;20463;-72
2021/08/10 02:21:24;;;;;;;2.03;1.83;;;;;;;12.47;100.00;101026.78;5050620;28;20670;-73
2021/08/10 02:23:56;;;;;;;6.33;2.47;;;;;;;12.45;100.00;101025.97;5047335;28;20221;-72
2021/08/10 02:26:23;;;;;;;3.23;2.07;;;;;;;12.45;100.00;101031.19;5049284;28;20198;-72
2021/08/10 02:28:53;;;;;;;6.83;2.60;;;;;;;12.43;100.00;101031.25;5050735;28;20206;-72
2021/08/10 02:31:27;;;;;;;3.53;2.30;;;;;;;12.44;100.00;101037.34;5050116;28;20210;-72
2021/08/10 02:33:55;;;;;;;2.67;2.20;;;;;;;12.41;100.00;101037.44;5050044;28;20229;-73
2021/08/10 02:36:24;;;;;;;2.93;2.30;;;;;;;12.40;100.00;101039.19;5047652;28;20208;-72
2021/08/10 02:38:52;;;;;;;5.60;2.50;;;;;;;12.34;100.00;101033.25;5049775;28;20691;-72
2021/08/10 02:41:21;;;;;;;3.90;2.53;;;;;;;12.33;100.00;101029.81;5047019;28;20209;-72
2021/08/10 02:43:55;;;;;;;4.00;2.30;;;;;;;12.25;100.00;101036.97;5047685;28;20228;-72
2021/08/10 02:46:22;;;;;;;2.63;2.33;;;;;;;12.11;100.00;101029.50;5043568;28;20278;-73
2021/08/10 02:48:52;;;;;;;2.83;2.27;;;;;;;12.16;100.00;101027.63;5049765;28;20207;-72
2021/08/10 02:51:19;;;;;;;3.40;2.50;;;;;;;12.01;100.00;101028.00;5046899;28;20235;-72
2021/08/10 02:53:48;;;;;;;2.20;1.97;;;;;;;11.97;100.00;101024.63;5048871;28;20245;-72
2021/08/10 02:56:19;;;;;;;3.30;2.17;;;;;;;12.02;100.00;101019.28;5047747;28;20235;-72
2021/08/10 02:58:51;;;;;;;3.37;2.40;;;;;;;11.99;100.00;101022.81;5049205;28;20212;-73
2021/08/10 03:01:21;;;;;;;2.57;2.20;;;;;;;11.96;100.00;101033.38;5050386;28;20199;-72
2021/08/10 03:03:54;;;;;;;3.03;2.30;;;;;;;11.87;100.00;101036.16;5057623;28;20227;-73
2021/08/10 03:06:21;;;;;;;3.00;2.47;;;;;;;11.82;100.00;101033.69;5048415;28;20203;-72
2021/08/10 03:08:57;;;;;;;3.63;2.67;;;;;;;11.87;100.00;101033.56;5048280;28;20532;-73
2021/08/10 03:11:24;;;;;;;3.63;2.20;;;;;;;11.97;100.00;101029.84;5058711;28;20520;-73
2021/08/10 03:13:53;;;;;;;3.13;2.13;;;;;;;11.98;100.00;101028.09;5037645;28;20301;-73
2021/08/10 03:16:20;;;;;;;3.13;2.40;;;;;;;11.97;100.00;101029.00;5066537;28;20207;-73
2021/08/10 03:18:51;;;;;;;3.63;2.60;;;;;;;11.91;100.00;101028.25;5046952;28;20282;-72
2021/08/10 03:21:20;;;;;;;2.83;2.37;;;;;;;11.85;100.00;101023.13;5050577;28;20208;-72
2021/08/10 03:23:48;;;;;;;4.47;2.50;;;;;;;12.05;100.00;101029.69;5046469;28;20230;-72
2021/08/10 03:26:17;;;;;;;3.33;2.60;;;;;;;11.90;100.00;101023.91;5058742;28;20753;-73
2021/08/10 03:28:45;;;;;;;5.00;2.47;;;;;;;11.88;100.00;101019.59;5044927;28;20199;-72
2021/08/10 03:31:16;;;;;;;2.70;2.40;;;;;;;11.97;100.00;101015.94;5045356;28;20242;-72
2021/08/10 03:33:45;;;;;;;3.53;2.50;;;;;;;11.96;100.00;101007.25;5043880;28;20223;-73
2021/08/10 03:36:13;;;;;;;3.87;2.40;;;;;;;12.03;100.00;101005.31;5050460;28;20200;-72
2021/08/10 03:38:40;;;;;;;3.33;2.40;;;;;;;11.98;100.00;101004.56;5061830;28;22491;-72
2021/08/10 03:41:09;;;;;;;3.13;2.80;;;;;;;11.92;100.00;101014.31;5067378;28;20221;-72
2021/08/10 03:43:37;;;;;;;7.30;2.70;;;;;;;11.83;100.00;101008.41;5051552;28;20231;-73
2021/08/10 03:46:06;;;;;;;2.90;2.37;;;;;;;11.81;100.00;101008.44;5052716;28;20246;-72
2021/08/10 03:48:38;;;;;;;2.90;2.57;;;;;;;11.88;100.00;100991.72;5051943;28;20212;-72
2021/08/10 03:51:05;;;;;;;2.60;2.30;;;;;;;11.83;100.00;100993.59;5049593;28;20211;-72
2021/08/10 03:53:31;;;;;;;3.17;2.50;;;;;;;11.89;100.00;100980.38;5052358;28;20285;-72
2021/08/10 03:56:00;;;;;;;3.50;2.70;;;;;;;11.82;100.00;100984.06;5064816;28;20203;-72
2021/08/10 03:58:38;;;;;;;4.43;2.87;;;;;;;11.77;100.00;100974.59;5051832;28;20238;-72
2021/08/10 04:01:07;;;;;;;3.60;2.40;;;;;;;11.72;100.00;100980.81;5051194;28;20203;-72
2021/08/10 04:03:36;;;;;;;3.20;2.23;;;;;;;11.79;100.00;100980.66;5051127;28;20231;-72
2021/08/10 04:06:06;;;;;;;3.30;2.50;;;;;;;11.76;100.00;100976.34;5051281;28;20334;-72
2021/08/10 04:08:33;;;;;;;3.77;2.40;;;;;;;11.83;100.00;100980.53;5055927;28;20203;-72
2021/08/10 04:11:01;;;;;;;4.30;2.87;;;;;;;11.97;100.00;100981.97;5049190;28;20289;-73
2021/08/10 04:13:31;;;;;;;3.97;2.70;;;;;;;11.92;100.00;100980.34;5055678;28;20601;-73
2021/08/10 04:16:02;;;;;;;5.07;2.77;;;;;;;11.98;100.00;100984.53;5050525;28;20204;-72
2021/08/10 04:18:30;;;;;;;5.00;2.83;;;;;;;12.06;100.00;100974.72;5050767;28;20204;-72
2021/08/10 04:20:56;;;;;;;2.90;2.60;;;;;;;12.09;100.00;100974.66;5066782;28;20222;-73
2021/08/10 04:23:23;;;;;;;3.50;2.80;;;;;;;12.10;100.00;100979.00;5048756;28;20245;-72
2021/08/10 04:25:49;;;;;;;3.43;2.90;;;;;;;12.29;100.00;100978.47;5055377;28;20214;-72
2021/08/10 04:28:16;;;;;;;4.63;2.80;;;;;;;12.16;100.00;100977.97;5053390;28;20294;-73
2021/08/10 04:30:46;;;;;;;3.60;2.80;;;;;;;12.30;100.00;100974.97;5050763;28;20200;-73
2021/08/10 04:33:16;;;;;;;3.10;2.70;;;;;;;12.37;100.00;100973.06;5052912;28;20225;-72
2021/08/10 04:35:43;;;;;;;4.10;2.60;;;;;;;12.58;100.00;100971.59;5044427;28;20658;-72
2021/08/10 04:38:10;;;;;;;3.93;2.80;;;;;;;12.45;100.00;100966.72;5053617;28;20215;-72
2021/08/10 04:40:37;;;;;;;3.93;2.80;;;;;;;12.54;100.00;100970.81;5060992;28;20800;-72
2021/08/10 04:43:20;;;;;;;3.50;2.43;;;;;;;12.55;100.00;100971.66;5062773;28;20277;-72
2021/08/10 04:45:49;;;;;;;3.70;3.03;;;;;;;12.69;100.00;100972.97;5050189;28;20207;-72
2021/08/10 04:48:16;;;;;;;5.53;3.00;;;;;;;12.82;100.00;100962.13;5049418;28;20245;-72
2021/08/10 04:50:43;;;;;;;3.97;3.13;;;;;;;12.91;100.00;100966.22;5049951;28;20297;-72
2021/08/10 04:53:16;;;;;;;6.67;2.93;;;;;;;13.19;100.00;100961.88;5052503;28;20222;-72
2021/08/10 04:55:42;;;;;;;4.00;3.13;;;;;;;13.24;100.00;100965.22;5053147;28;20214;-73
2021/08/10 04:58:08;;;;;;;3.33;3.03;;;;;;;13.32;100.00;100969.38;5053377;28;20219;-72
2021/08/10 05:00:36;;;;;;;4.07;3.27;;;;;;;13.39;100.00;100963.03;5052332;28;20217;-72
2021/08/10 05:03:02;;;;;;;3.13;2.83;;;;;;;13.37;100.00;100963.06;5049109;28;20253;-72
2021/08/10 05:05:32;;;;;;;3.73;2.77;;;;;;;13.54;100.00;100965.13;5045695;28;20210;-72
2021/08/10 05:08:00;;;;;;;3.13;2.80;;;;;;;13.69;100.00;100969.00;5041852;28;20212;-73
2021/08/10 05:10:28;;;;;;;2.83;2.53;;;;;;;13.78;100.00;100968.69;5052862;28;20274;-74
2021/08/10 05:12:56;;;;;;;3.23;2.67;;;;;;;13.92;100.00;100970.84;5048355;28;20224;-73
2021/08/10 05:15:25;;;;;;;3.67;2.93;;;;;;;13.89;100.00;100975.34;5052344;28;20206;-74
2021/08/10 05:17:51;;;;;;;3.30;3.00;;;;;;;13.92;100.00;100973.47;5047480;28;20271;-74
2021/08/10 05:20:21;;;;;;;3.40;2.47;;;;;;;14.04;100.00;100974.81;5048920;28;20242;-74
2021/08/10 05:22:50;;;;;;;3.07;2.70;;;;;;;14.19;100.00;100976.91;5053636;28;20205;-73
2021/08/10 05:25:16;;;;;;;3.80;3.00;;;;;;;14.38;100.00;100981.47;5039738;28;20342;-73
2021/08/10 05:27:43;;;;;;;3.80;2.77;;;;;;;14.48;100.00;100982.00;5047126;28;20206;-73
2021/08/10 05:30:10;;;;;;;3.17;2.77;;;;;;;14.61;100.00;100979.81;5044124;28;21504;-73
2021/08/10 05:32:37;;;;;;;3.17;2.70;;;;;;;14.71;100.00;100981.19;5044163;28;20211;-73
2021/08/10 05:35:05;;;;;;;3.00;2.70;;;;;;;14.93;100.00;100986.44;5039142;28;20262;-73
2021/08/10 05:37:32;;;;;;;3.27;2.33;;;;;;;14.95;100.00;100982.00;5044609;28;20199;-73
2021/08/10 05:40:01;;;;;;;3.33;2.17;;;;;;;15.14;100.00;100979.50;5043035;28;20211;-73
2021/08/10 05:42:27;;;;;;;5.83;2.67;;;;;;;15.17;100.00;100974.13;5046620;28;20207;-73
2021/08/10 05:44:54;;;;;;;4.17;2.93;;;;;;;15.31;100.00;100971.81;5046417;28;20745;-73
2021/08/10 05:47:20;;;;;;;3.03;2.53;;;;;;;15.44;100.00;100980.06;5040044;28;20203;-73
2021/08/10 05:49:47;;;;;;;3.70;2.40;;;;;;;15.55;100.00;100978.75;5046953;28;20208;-73
2021/08/10 05:52:13;;;;;;;2.60;2.30;;;;;;;15.67;100.00;100972.97;5048977;28;20200;-73
2021/08/10 05:54:40;;;;;;;4.27;2.50;;;;;;;15.77;99.57;100970.88;5045603;28;20234;-73
2021/08/10 05:57:08;;;;;;;3.60;2.30;;;;;;;15.83;99.09;100978.47;5050439;28;20209;-73
2021/08/10 05:59:35;;;;;;;3.47;2.63;;;;;;;15.94;99.88;100978.91;5047501;28;20217;-73
2021/08/10 06:02:04;;;;;;;2.80;2.33;;;;;;;16.06;97.85;100980.16;5047190;28;20231;-73
2021/08/10 06:04:30;;;;;;;4.93;2.50;;;;;;;16.15;97.61;100974.47;5041457;28;20254;-73
2021/08/10 06:06:58;;;;;;;3.00;2.40;;;;;;;16.32;97.55;100973.72;5043444;28;20210;-73
2021/08/10 06:09:28;;;;;;;3.50;2.20;;;;;;;16.41;96.26;100981.22;5042588;28;20206;-73
2021/08/10 06:11:55;;;;;;;3.93;2.27;;;;;;;16.51;95.50;100979.00;5045700;28;20221;-73
2021/08/10 06:14:24;;;;;;;6.33;2.17;;;;;;;16.61;95.51;100974.19;5057207;28;20226;-73
2021/08/10 06:16:50;;;;;;;3.47;2.40;;;;;;;16.65;94.62;100983.66;5043709;28;20214;-73
2021/08/10 06:19:18;;;;;;;2.80;2.00;;;;;;;16.73;93.84;100984.16;5041986;28;20661;-73
2021/08/10 06:21:44;;;;;;;2.63;2.07;;;;;;;16.81;94.27;100984.63;5046370;28;20250;-73
2021/08/10 06:24:12;;;;;;;2.90;2.30;;;;;;;16.88;93.13;100977.34;5042115;28;20226;-73
2021/08/10 06:26:41;;;;;;;3.93;1.90;;;;;;;17.02;93.68;100971.44;5042291;28;20218;-73
2021/08/10 06:29:08;;;;;;;3.00;2.17;;;;;;;17.13;94.02;100976.19;5043971;28;20215;-73
2021/08/10 06:31:36;;;;;;;2.10;1.90;;;;;;;17.28;94.37;100970.19;5045173;28;20677;-73
2021/08/10 06:34:05;;;;;;;2.57;2.00;;;;;;;17.36;91.93;100977.69;5050080;28;20286;-73
2021/08/10 06:36:32;;;;;;;2.37;1.90;;;;;;;17.46;90.71;100971.06;5045031;28;20212;-73
2021/08/10 06:38:58;;;;;;;2.37;1.90;;;;;;;17.58;91.90;100967.81;5044970;28;20302;-73
2021/08/10 06:41:25;;;;;;;4.43;1.90;;;;;;;17.65;88.43;100972.78;5038460;28;20733;-73
2021/08/10 06:44:08;;;;;;;1.90;1.70;;;;;;;17.74;90.13;100965.25;5042682;28;20310;-73
2021/08/10 06:46:44;;;;;;;1.87;1.67;;;;;;;17.77;88.16;100959.81;5037360;28;20203;-73
2021/08/10 06:49:11;;;;;;;3.47;1.90;;;;;;;17.89;89.76;100963.66;5046179;28;20489;-73
2021/08/10 06:51:37;;;;;;;2.67;2.03;;;;;;;18.01;88.35;100958.69;5043331;28;20199;-73
2021/08/10 06:54:06;;;;;;;1.90;1.60;;;;;;;18.12;86.64;100962.47;5059654;28;20846;-73
2021/08/10 06:56:33;;;;;;;4.23;2.10;;;;;;;18.23;88.13;100963.69;5044348;28;20284;-73
2021/08/10 06:59:01;;;;;;;2.90;1.97;;;;;;;18.29;89.98;100966.00;5043765;28;20265;-73
2021/08/10 07:01:31;;;;;;;2.00;1.80;;;;;;;18.31;87.94;100967.63;5040460;28;20203;-73
2021/08/10 07:03:59;;;;;;;2.87;1.90;;;;;;;18.34;87.92;100971.88;5051211;28;20594;-73
2021/08/10 07:06:25;;;;;;;5.07;2.07;;;;;;;18.35;86.68;100977.09;5043632;28;20491;-73
2021/08/10 07:08:54;;;;;;;3.80;1.83;;;;;;;18.34;84.18;100985.09;5041190;28;20261;-73
2021/08/10 07:11:21;;;;;;;1.97;1.60;;;;;;;18.29;83.95;100980.06;5044433;28;20214;-73
2021/08/10 07:13:51;;;;;;;4.43;1.80;;;;;;;18.35;84.38;100976.25;5045450;28;20231;-73
2021/08/10 07:16:18;;;;;;;5.07;1.87;;;;;;;18.42;84.34;100967.06;5051878;28;20788;-73
2021/08/10 07:18:45;;;;;;;2.17;1.90;;;;;;;18.48;85.60;100963.22;5051929;28;20290;-75
2021/08/10 07:21:19;;;;;;;2.17;1.70;;;;;;;18.53;85.72;100963.84;5052460;28;20214;-75
2021/08/10 07:23:55;;;;;;;2.27;1.80;;;;;;;18.65;84.90;100962.31;5046267;28;20223;-74
2021/08/10 07:26:24;;;;;;;3.60;1.60;;;;;;;18.77;84.29;100963.41;5052033;28;20265;-74
2021/08/10 07:28:55;;;;;;;4.70;1.97;;;;;;;18.87;83.55;100962.00;5049294;28;20249;-74
2021/08/10 07:31:22;;;;;;;2.50;1.60;;;;;;;18.91;83.39;100964.41;5050667;28;20199;-74
2021/08/10 07:33:49;;;;;;;6.20;1.80;;;;;;;18.95;82.98;100967.72;5048874;28;20218;-74
2021/08/10 07:36:16;;;;;;;3.27;1.67;;;;;;;19.01;81.28;100961.25;5047435;28;20261;-74
2021/08/10 07:38:44;;;;;;;3.23;2.00;;;;;;;19.00;79.49;100962.19;5048509;28;20218;-74
2021/08/10 07:41:11;;;;;;;3.03;1.60;;;;;;;19.13;80.46;100957.06;5046663;28;20226;-74
2021/08/10 07:43:37;;;;;;;5.67;1.73;;;;;;;19.35;80.47;100964.59;5046291;28;20211;-74
2021/08/10 07:46:06;;;;;;;4.90;1.90;;;;;;;19.61;79.13;100956.03;5045274;28;20318;-74
2021/08/10 07:48:33;;;;;;;3.67;1.60;;;;;;;19.84;77.16;100964.41;5064300;28;20221;-74
2021/08/10 07:51:00;;;;;;;3.23;1.60;;;;;;;20.10;75.74;100960.19;5046328;28;20212;-74
2021/08/10 07:53:26;;;;;;;3.93;1.70;;;;;;;20.35;73.33;100964.84;5049675;28;20215;-74
2021/08/10 07:55:54;;;;;;;2.53;1.30;;;;;;;20.51;73.60;100964.75;5050998;28;20701;-74
2021/08/10 07:58:21;;;;;;;2.87;1.50;;;;;;;20.55;73.08;100968.91;5047498;28;20257;-74
2021/08/10 08:00:49;;;;;;;3.10;1.53;;;;;;;20.72;71.17;100972.31;5049725;28;20275;-74
2021/08/10 08:03:15;;;;;;;2.00;1.50;;;;;;;21.00;71.44;100968.75;5049774;28;20225;-74
2021/08/10 08:05:43;;;;;;;1.63;1.50;;;;;;;21.17;69.61;100967.66;5048115;28;20227;-74
2021/08/10 08:08:10;;;;;;;3.20;1.40;;;;;;;21.31;67.78;100967.59;5051348;28;20237;-74
2021/08/10 08:10:37;;;;;;;2.43;1.57;;;;;;;21.53;69.13;100961.75;5047531;28;20207;-74
2021/08/10 08:13:04;;;;;;;3.07;1.57;;;;;;;21.58;70.08;100963.25;5066551;28;20227;-74
2021/08/10 08:15:33;;;;;;;3.17;1.60;;;;;;;21.63;67.94;100963.78;5049405;28;20289;-74
2021/08/10 08:17:59;;;;;;;3.13;1.63;;;;;;;21.70;67.18;100970.38;5048316;28;20207;-74
2021/08/10 08:20:26;;;;;;;2.27;1.70;;;;;;;21.89;67.86;100965.50;5045339;28;20615;-74
2021/08/10 08:22:53;;;;;;;2.20;1.60;;;;;;;21.97;66.99;100964.13;5066432;28;20222;-74
2021/08/10 08:25:20;;;;;;;3.57;1.67;;;;;;;21.96;65.83;100951.84;5046268;28;20269;-74
2021/08/10 08:27:47;;;;;;;2.10;1.73;;;;;;;21.99;67.15;100941.03;5069740;28;20203;-74
2021/08/10 08:30:15;;;;;;;3.60;1.52;;;;;;;21.90;66.17;100939.84;5062982;28;20237;-74
2021/08/10 08:32:43;;;;;;;1.67;1.25;;;;;;;21.83;66.85;100933.22;5045977;28;20587;-73
2021/08/10 08:35:10;;;;;;;3.47;1.60;;;;;;;21.85;66.64;100934.00;5048997;28;20254;-74
2021/08/10 08:37:36;;;;;;;4.28;1.48;;;;;;;21.82;67.48;100935.03;5046714;28;20295;-74
2021/08/10 08:40:04;;;;;;;3.72;1.90;;;;;;;21.84;65.83;100945.56;5046740;28;20666;-74
2021/08/10 08:42:31;;;;;;;2.28;1.65;;;;;;;21.90;63.69;100938.03;5047998;28;20604;-73
2021/08/10 08:44:59;;;;;;;1.67;1.30;;;;;;;22.01;66.46;100931.13;5059781;28;20249;-73
2021/08/10 08:47:27;;;;;;;2.60;1.45;;;;;;;22.02;62.91;100938.13;5047182;28;20203;-73
2021/08/10 08:49:58;;;;;;;2.47;1.17;;;;;;;22.01;64.62;100933.78;5051532;28;20208;-73
2021/08/10 08:52:28;;;;;;;1.83;1.33;;;;;;;22.07;64.31;100944.81;5047212;28;20211;-73
2021/08/10 08:54:56;;;;;;;4.10;2.25;;;;;;;22.12;63.52;100937.38;5049221;28;20219;-73
2021/08/10 08:57:23;;;;;;;2.38;1.50;;;;;;;22.13;64.52;100933.78;5046372;28;20307;-73
2021/08/10 08:59:49;;;;;;;3.00;1.63;;;;;;;22.25;65.79;100928.53;5049803;28;20217;-73
2021/08/10 09:02:18;;;;;;;1.65;1.30;;;;;;;22.29;63.20;100943.38;5045691;28;20676;-73
2021/08/10 09:04:47;;;;;;;3.58;1.23;;;;;;;22.36;63.02;100951.75;5049007;28;20245;-73
2021/08/10 09:07:17;;;;;;;3.67;1.52;;;;;;;22.39;63.66;100944.41;5059902;28;20613;-73
2021/08/10 09:09:45;;;;;;;4.05;1.50;;;;;;;22.28;61.83;100942.50;5048886;28;20294;-73
2021/08/10 09:12:17;;;;;;;5.78;1.50;;;;;;;22.40;62.40;100924.84;5050736;28;20206;-73
2021/08/10 09:14:50;;;;;;;3.35;1.15;;;;;;;22.60;61.99;100927.88;5063209;28;20250;-73
2021/08/10 09:17:23;;;;;;;2.20;1.45;;;;;;;22.68;62.87;100936.16;5049661;28;20312;-73
2021/08/10 09:20:02;;;;;;;3.72;1.33;;;;;;;22.71;64.02;100927.97;5062742;28;20961;-73
2021/08/10 09:22:32;;;;;;;3.15;1.58;;;;;;;22.73;62.96;100942.00;5050208;28;20226;-73
2021/08/10 09:25:15;;;;;;;3.97;1.60;;;;;;;22.50;61.86;100939.19;5043694;28;20230;-73
2021/08/10 09:27:43;;;;;;;2.45;1.50;;;;;;;22.45;62.98;100932.50;5045901;28;20218;-73
2021/08/10 09:30:15;;;;;;;3.40;1.80;;;;;;;22.44;63.58;100933.44;5045839;28;20207;-73
2021/08/10 09:32:58;;;;;;;3.35;1.70;;;;;;;22.43;63.93;100943.22;5048085;28;20222;-74
2021/08/10 09:35:32;;;;;;;5.22;1.42;;;;;;;22.36;63.13;100944.63;5046029;28;20195;-73
2021/08/10 09:38:11;;;;;;;4.18;1.50;;;;;;;22.22;62.65;100944.72;5047062;28;20214;-73
2021/08/10 09:40:41;;;;;;;2.35;1.50;;;;;;;22.11;62.58;100945.47;5038235;28;20322;-73
2021/08/10 09:43:29;;;;;;;1.65;1.30;;;;;;;21.86;63.06;100952.47;5042069;28;20224;-73
2021/08/10 09:46:19;;;;;;;3.40;1.65;;;;;;;21.76;63.56;100948.75;5066300;28;20516;-73
2021/08/10 09:48:56;;;;;;;2.38;1.40;;;;;;;21.60;63.85;100950.72;5040549;28;20208;-73
2021/08/10 09:51:28;;;;;;;3.10;1.40;;;;;;;21.37;65.37;100953.94;5045714;28;20292;-73
2021/08/10 09:53:57;;;;;;;2.47;1.50;;;;;;;21.28;64.38;100961.66;5043397;28;20967;-73
2021/08/10 09:56:37;;;;;;;2.50;1.67;;;;;;;21.19;67.06;100965.75;5046184;28;20253;-73
2021/08/10 09:59:04;;;;;;;1.90;1.67;;;;;;;20.98;68.62;100974.16;5043423;28;20254;-73
2021/08/10 10:01:34;;;;;;;4.55;1.70;;;;;;;20.65;68.58;100984.25;5048676;28;20207;-73
2021/08/10 10:04:15;;;;;;;1.90;1.50;;;;;;;20.23;73.10;100982.34;5039377;28;20235;-73
2021/08/10 10:06:48;;;;;;;1.70;1.40;;;;;;;19.99;73.67;100984.66;5047153;28;20207;-73
2021/08/10 10:09:15;;;;;;;3.37;1.70;;;;;;;19.72;75.78;100996.84;5047708;28;20217;-73
2021/08/10 10:11:43;;;;;;;2.70;1.83;;;;;;;19.29;81.17;100997.53;5044957;28;20214;-74
2021/08/10 10:14:11;;;;;;;3.33;1.50;;;;;;;18.82;83.94;100990.47;5040430;28;20237;-74
2021/08/10 10:16:41;;;;;;;3.03;1.53;;;;;;;18.42;89.09;100985.53;5045426;28;20196;-74
2021/08/10 10:19:10;;;;;;;2.63;1.73;;;;;;;18.23;91.59;100977.72;5046549;28;20954;-73
2021/08/10 10:21:39;;;;;;;2.00;1.77;;;;;;;18.02;92.54;100984.13;5044612;28;20630;-73
2021/08/10 10:24:08;;;;;;;2.40;1.80;;;;;;;17.94;95.59;100980.09;5049773;28;20733;-73
2021/08/10 10:26:38;;;;;;;3.07;1.90;;;;;;;17.85;96.16;100977.88;5044317;28;20255;-73
2021/08/10 10:29:05;;;;;;;3.03;2.10;;;;;;;17.79;96.45;100988.75;5046907;28;20685;-73
2021/08/10 10:31:32;;;;;;;3.20;1.90;;;;;;;17.73;98.19;100984.66;5041597;28;20224;-73
2021/08/10 10:34:00;;;;;;;3.10;2.00;;;;;;;17.64;100.00;100978.97;5048155;28;20681;-73
2021/08/10 10:36:26;;;;;;;2.63;1.57;;;;;;;17.62;98.78;100984.31;5039000;28;20199;-72
2021/08/10 10:38:55;;;;;;;3.00;1.90;;;;;;;17.60;100.00;100986.19;5046943;28;20199;-73
2021/08/10 10:41:25;;;;;;;2.43;1.90;;;;;;;17.46;100.00;100986.88;5042406;28;20211;-73
2021/08/10 10:43:53;;;;;;;12.27;5.30;;;;;;;17.28;99.72;100980.72;5045323;28;20231;-73
2021/08/10 10:46:27;;;;;;;14.53;7.23;;;;;;;17.22;99.33;100981.03;5043406;28;20754;-73
2021/08/10 10:48:54;;;;;;;16.40;7.77;;;;;;;17.21;100.00;100977.53;5045741;28;20291;-72
2021/08/10 10:51:27;;;;;;;13.47;7.73;;;;;;;17.13;100.00;100994.63;5045658;28;20210;-73
2021/08/10 10:54:12;;;;;;;12.07;7.07;;;;;;;16.98;100.00;101019.94;5047207;28;20227;-73
2021/08/10 10:56:39;;;;;;;7.90;5.10;;;;;;;16.81;100.00;101045.19;5044659;28;20263;-75
2021/08/10 10:59:28;;;;;;;4.10;2.43;;;;;;;16.65;100.00;101002.06;5044777;28;20211;-73
2021/08/10 11:02:12;;;;;;;2.23;2.03;;;;;;;16.42;100.00;101003.13;5049444;28;20210;-74
2021/08/10 11:04:38;;;;;;;2.80;2.13;;;;;;;16.21;100.00;101002.28;5040471;28;20222;-73
2021/08/10 11:07:35;;;;;;;2.60;2.10;;;;;;;16.09;100.00;100993.16;5047790;28;20210;-73
2021/08/10 11:10:01;;;;;;;3.37;2.63;;;;;;;16.05;100.00;100995.06;5043349;28;20215;-73
2021/08/10 11:12:44;;;;;;;2.47;2.20;;;;;;;15.94;100.00;101014.88;5047802;28;20212;-73
2021/08/10 11:15:12;;;;;;;3.40;2.30;;;;;;;15.79;100.00;101021.59;5049425;28;20199;-73
2021/08/10 11:17:38;;;;;;;3.17;1.87;;;;;;;15.76;100.00;101037.50;5043381;28;20446;-73
2021/08/10 11:20:22;;;;;;;2.57;1.90;;;;;;;15.63;100.00;101030.09;5046869;28;20692;-74
2021/08/10 11:22:49;;;;;;;2.70;1.80;;;;;;;15.55;100.00;101018.16;5043756;28;20241;-73
2021/08/10 11:25:22;;;;;;;3.90;2.03;;;;;;;15.50;100.00;101018.38;5047554;28;20219;-73
2021/08/10 11:27:50;;;;;;;3.77;1.93;;;;;;;15.55;100.00;101023.44;5041082;28;20597;-73
2021/08/10 11:30:47;;;;;;;2.63;1.90;;;;;;;15.61;100.00;101020.56;5045548;28;20202;-73
2021/08/10 11:33:40;;;;;;;4.87;2.20;;;;;;;15.65;100.00;101020.34;5043775;28;20709;-73